createdAt,value
2018-08-11T00:00:32.920Z,12.44
2018-08-11T00:01:06.842Z,12.44
2018-08-11T00:01:40.442Z,12.44
2018-08-11T00:02:14.112Z,12.44
2018-08-11T00:02:47.717Z,12.44
2018-08-11T00:03:21.325Z,12.44
2018-08-11T00:03:54.949Z,12.44
2018-08-11T00:04:28.581Z,12.44
2018-08-11T00:05:02.204Z,12.44
2018-08-11T00:05:35.795Z,12.44
2018-08-11T00:06:09.424Z,12.44
2018-08-11T00:06:43.050Z,12.44
2018-08-11T00:07:16.645Z,12.37
2018-08-11T00:07:50.593Z,12.37
2018-08-11T00:08:24.241Z,12.37
2018-08-11T00:08:57.844Z,12.37
2018-08-11T00:09:31.450Z,12.37
2018-08-11T00:10:06.965Z,12.37
2018-08-11T00:10:40.594Z,12.37
2018-08-11T00:11:14.259Z,12.37
2018-08-11T00:11:47.814Z,12.37
2018-08-11T00:12:21.433Z,12.37
2018-08-11T00:12:55.022Z,12.37
2018-08-11T00:13:28.691Z,12.31
2018-08-11T00:14:02.275Z,12.31
2018-08-11T00:14:35.955Z,12.25
2018-08-11T00:15:14.847Z,12.25
2018-08-11T00:15:48.424Z,12.25
2018-08-11T00:16:22.042Z,12.25
2018-08-11T00:16:55.639Z,12.25
2018-08-11T00:17:29.540Z,12.25
2018-08-11T00:18:03.181Z,12.25
2018-08-11T00:18:36.763Z,12.25
2018-08-11T00:19:10.328Z,12.19
2018-08-11T00:19:43.948Z,12.19
2018-08-11T00:20:23.901Z,12.19
2018-08-11T00:20:57.460Z,12.19
2018-08-11T00:21:31.128Z,12.13
2018-08-11T00:22:04.782Z,12.13
2018-08-11T00:22:39.025Z,12.13
2018-08-11T00:23:12.744Z,12.13
2018-08-11T00:23:46.397Z,12.13
2018-08-11T00:24:20.031Z,12.13
2018-08-11T00:24:53.567Z,12.13
2018-08-11T00:25:27.207Z,12.06
2018-08-11T00:26:00.869Z,12.06
2018-08-11T00:26:34.491Z,12.06
2018-08-11T00:27:08.086Z,12.06
2018-08-11T00:27:41.764Z,12.00
2018-08-11T00:28:15.347Z,12.00
2018-08-11T00:28:48.963Z,12.00
2018-08-11T00:29:22.535Z,12.00
2018-08-11T00:29:56.099Z,12.00
2018-08-11T00:30:29.816Z,12.00
2018-08-11T00:31:03.407Z,12.00
2018-08-11T00:31:37.229Z,12.00
2018-08-11T00:32:10.875Z,12.00
2018-08-11T00:32:44.483Z,12.00
2018-08-11T00:33:18.036Z,11.94
2018-08-11T00:33:51.596Z,11.94
2018-08-11T00:34:25.161Z,11.94
2018-08-11T00:34:59.362Z,11.94
2018-08-11T00:35:32.973Z,11.94
2018-08-11T00:36:06.642Z,11.94
2018-08-11T00:36:40.217Z,11.94
2018-08-11T00:37:13.785Z,11.94
2018-08-11T00:37:47.345Z,11.94
2018-08-11T00:38:20.970Z,11.94
2018-08-11T00:38:54.541Z,11.94
2018-08-11T00:39:28.116Z,11.94
2018-08-11T00:40:01.769Z,11.94
2018-08-11T00:40:35.315Z,11.94
2018-08-11T00:41:08.895Z,11.94
2018-08-11T00:41:42.473Z,11.94
2018-08-11T00:42:16.059Z,11.94
2018-08-11T00:42:50.304Z,12.00
2018-08-11T00:43:23.838Z,12.00
2018-08-11T00:43:57.486Z,11.94
2018-08-11T00:44:31.105Z,11.94
2018-08-11T00:45:08.447Z,11.94
2018-08-11T00:45:42.065Z,11.94
2018-08-11T00:46:15.718Z,11.94
2018-08-11T00:46:49.275Z,11.94
2018-08-11T00:47:22.861Z,11.94
2018-08-11T00:47:56.423Z,11.94
2018-08-11T00:48:30.152Z,11.94
2018-08-11T00:49:03.840Z,11.94
2018-08-11T00:49:37.534Z,11.94
2018-08-11T00:50:23.930Z,11.94
2018-08-11T00:50:57.557Z,11.94
2018-08-11T00:51:31.178Z,12.00
2018-08-11T00:52:04.889Z,12.00
2018-08-11T00:52:38.587Z,12.00
2018-08-11T00:53:12.245Z,12.00
2018-08-11T00:53:45.834Z,12.00
2018-08-11T00:54:19.433Z,12.00
2018-08-11T00:54:53.007Z,12.00
2018-08-11T00:55:26.610Z,12.00
2018-08-11T00:56:00.235Z,12.06
2018-08-11T00:56:33.796Z,12.06
2018-08-11T00:57:07.454Z,12.06
2018-08-11T00:57:41.375Z,12.06
2018-08-11T00:58:14.923Z,12.06
2018-08-11T00:58:48.596Z,12.06
2018-08-11T00:59:22.159Z,12.06
2018-08-11T00:59:55.765Z,12.06
2018-08-11T01:00:29.303Z,12.06
2018-08-11T01:01:02.919Z,12.13
2018-08-11T01:01:36.519Z,12.13
2018-08-11T01:02:10.165Z,12.13
2018-08-11T01:02:43.925Z,12.13
2018-08-11T01:03:17.581Z,12.13
2018-08-11T01:03:51.182Z,12.13
2018-08-11T01:04:25.090Z,12.13
2018-08-11T01:04:58.668Z,12.13
2018-08-11T01:05:32.309Z,12.13
2018-08-11T01:06:06.064Z,12.06
2018-08-11T01:06:39.689Z,12.06
2018-08-11T01:07:13.237Z,12.06
2018-08-11T01:07:47.395Z,12.06
2018-08-11T01:08:20.977Z,12.06
2018-08-11T01:08:54.547Z,12.06
2018-08-11T01:09:28.126Z,12.00
2018-08-11T01:10:01.676Z,12.00
2018-08-11T01:10:35.294Z,12.06
2018-08-11T01:11:08.934Z,12.06
2018-08-11T01:11:42.527Z,12.06
2018-08-11T01:12:16.114Z,12.06
2018-08-11T01:12:49.710Z,12.00
2018-08-11T01:13:23.285Z,12.06
2018-08-11T01:13:56.891Z,12.06
2018-08-11T01:14:30.495Z,12.06
2018-08-11T01:15:05.287Z,12.06
2018-08-11T01:15:38.912Z,12.06
2018-08-11T01:16:13.507Z,12.06
2018-08-11T01:16:47.095Z,12.06
2018-08-11T01:17:20.655Z,12.00
2018-08-11T01:17:54.218Z,12.00
2018-08-11T01:18:27.745Z,12.00
2018-08-11T01:19:01.357Z,12.00
2018-08-11T01:19:34.899Z,12.00
2018-08-11T01:20:10.336Z,12.00
2018-08-11T01:20:43.947Z,12.00
2018-08-11T01:21:17.583Z,12.00
2018-08-11T01:21:51.221Z,12.00
2018-08-11T01:22:24.890Z,12.00
2018-08-11T01:22:58.587Z,12.00
2018-08-11T01:23:32.125Z,12.00
2018-08-11T01:24:05.802Z,11.94
2018-08-11T01:24:39.437Z,11.94
2018-08-11T01:25:13.641Z,11.94
2018-08-11T01:25:47.223Z,11.94
2018-08-11T01:26:20.763Z,11.94
2018-08-11T01:26:54.461Z,11.94
2018-08-11T01:27:28.047Z,11.94
2018-08-11T01:28:01.604Z,11.94
2018-08-11T01:28:35.155Z,11.94
2018-08-11T01:29:08.755Z,11.94
2018-08-11T01:29:42.311Z,11.94
2018-08-11T01:30:19.514Z,11.94
2018-08-11T01:30:53.088Z,11.88
2018-08-11T01:31:26.700Z,11.88
2018-08-11T01:32:00.307Z,11.88
2018-08-11T01:32:33.917Z,11.88
2018-08-11T01:33:07.541Z,11.81
2018-08-11T01:33:41.124Z,11.81
2018-08-11T01:34:14.741Z,11.81
2018-08-11T01:34:48.311Z,11.81
2018-08-11T01:35:21.896Z,11.75
2018-08-11T01:35:55.475Z,11.75
2018-08-11T01:36:29.017Z,11.75
2018-08-11T01:37:02.567Z,11.75
2018-08-11T01:37:36.769Z,11.69
2018-08-11T01:38:10.389Z,11.69
2018-08-11T01:38:43.945Z,11.69
2018-08-11T01:39:17.557Z,11.69
2018-08-11T01:39:51.117Z,11.69
2018-08-11T01:40:24.679Z,11.69
2018-08-11T01:40:58.249Z,11.69
2018-08-11T01:41:31.813Z,11.69
2018-08-11T01:42:05.365Z,11.63
2018-08-11T01:42:39.886Z,11.63
2018-08-11T01:43:13.525Z,11.63
2018-08-11T01:43:47.120Z,11.69
2018-08-11T01:44:20.720Z,11.69
2018-08-11T01:44:54.354Z,11.63
2018-08-11T01:45:27.964Z,11.63
2018-08-11T01:46:01.563Z,11.63
2018-08-11T01:46:35.120Z,11.69
2018-08-11T01:47:08.657Z,11.69
2018-08-11T01:47:42.459Z,11.69
2018-08-11T01:48:16.027Z,11.69
2018-08-11T01:48:49.575Z,11.69
2018-08-11T01:49:23.148Z,11.69
2018-08-11T01:49:56.911Z,11.69
2018-08-11T01:50:30.492Z,11.69
2018-08-11T01:51:04.086Z,11.63
2018-08-11T01:51:37.702Z,11.63
2018-08-11T01:52:11.297Z,11.63
2018-08-11T01:52:45.977Z,11.63
2018-08-11T01:53:19.521Z,11.56
2018-08-11T01:53:53.081Z,11.56
2018-08-11T01:54:26.669Z,11.56
2018-08-11T01:55:00.297Z,11.50
2018-08-11T01:55:33.851Z,11.50
2018-08-11T01:56:07.445Z,11.50
2018-08-11T01:56:40.967Z,11.50
2018-08-11T01:57:14.554Z,11.50
2018-08-11T01:57:48.125Z,11.50
2018-08-11T01:58:21.701Z,11.50
2018-08-11T01:58:55.246Z,11.50
2018-08-11T01:59:28.871Z,11.50
2018-08-11T02:00:02.563Z,11.50
2018-08-11T02:00:36.114Z,11.50
2018-08-11T02:01:09.734Z,11.56
2018-08-11T02:01:43.319Z,11.56
2018-08-11T02:02:16.926Z,11.56
2018-08-11T02:02:50.523Z,11.56
2018-08-11T02:03:24.088Z,11.56
2018-08-11T02:03:57.664Z,11.63
2018-08-11T02:04:31.228Z,11.63
2018-08-11T02:05:05.333Z,11.63
2018-08-11T02:05:38.876Z,11.69
2018-08-11T02:06:12.488Z,11.69
2018-08-11T02:06:46.033Z,11.69
2018-08-11T02:07:19.609Z,11.69
2018-08-11T02:07:53.153Z,11.69
2018-08-11T02:08:26.731Z,11.75
2018-08-11T02:09:00.292Z,11.75
2018-08-11T02:09:33.875Z,11.75
2018-08-11T02:10:11.885Z,11.81
2018-08-11T02:10:45.464Z,11.81
2018-08-11T02:11:19.113Z,11.81
2018-08-11T02:11:52.611Z,11.81
2018-08-11T02:12:26.131Z,11.81
2018-08-11T02:12:59.720Z,11.81
2018-08-11T02:13:33.303Z,11.81
2018-08-11T02:14:07.230Z,11.81
2018-08-11T02:14:40.788Z,11.81
2018-08-11T02:15:14.809Z,11.88
2018-08-11T02:15:48.397Z,11.88
2018-08-11T02:16:21.982Z,11.88
2018-08-11T02:16:55.641Z,11.94
2018-08-11T02:17:29.231Z,11.94
2018-08-11T02:18:02.899Z,11.94
2018-08-11T02:18:36.435Z,11.94
2018-08-11T02:19:10.060Z,11.94
2018-08-11T02:19:43.656Z,11.94
2018-08-11T02:20:18.543Z,11.94
2018-08-11T02:20:52.059Z,11.94
2018-08-11T02:21:25.625Z,11.94
2018-08-11T02:21:59.197Z,12.00
2018-08-11T02:22:32.759Z,12.00
2018-08-11T02:23:06.516Z,12.00
2018-08-11T02:23:40.072Z,12.00
2018-08-11T02:24:13.656Z,12.06
2018-08-11T02:24:47.219Z,12.06
2018-08-11T02:25:20.831Z,12.06
2018-08-11T02:25:54.432Z,12.06
2018-08-11T02:26:27.972Z,12.06
2018-08-11T02:27:01.493Z,12.06
2018-08-11T02:27:35.369Z,12.06
2018-08-11T02:28:08.944Z,12.00
2018-08-11T02:28:42.515Z,12.00
2018-08-11T02:29:16.074Z,12.00
2018-08-11T02:29:49.625Z,12.00
2018-08-11T02:30:23.268Z,12.00
2018-08-11T02:30:56.855Z,11.94
2018-08-11T02:31:30.465Z,11.94
2018-08-11T02:32:04.379Z,12.00
2018-08-11T02:32:38.283Z,12.00
2018-08-11T02:33:11.923Z,12.06
2018-08-11T02:33:45.533Z,12.13
2018-08-11T02:34:19.105Z,12.13
2018-08-11T02:34:52.683Z,12.13
2018-08-11T02:35:26.284Z,12.13
2018-08-11T02:35:59.831Z,12.13
2018-08-11T02:36:33.373Z,12.13
2018-08-11T02:37:07.046Z,12.13
2018-08-11T02:37:41.013Z,12.13
2018-08-11T02:38:14.621Z,12.13
2018-08-11T02:38:48.171Z,12.06
2018-08-11T02:39:21.788Z,12.06
2018-08-11T02:39:55.411Z,12.06
2018-08-11T02:40:28.971Z,12.06
2018-08-11T02:41:02.518Z,12.06
2018-08-11T02:41:36.135Z,12.06
2018-08-11T02:42:09.769Z,12.06
2018-08-11T02:42:43.397Z,12.06
2018-08-11T02:43:16.971Z,12.06
2018-08-11T02:43:50.496Z,12.06
2018-08-11T02:44:24.083Z,12.00
2018-08-11T02:44:57.717Z,12.00
2018-08-11T02:45:31.287Z,11.94
2018-08-11T02:46:04.986Z,11.94
2018-08-11T02:46:38.623Z,11.94
2018-08-11T02:47:12.203Z,11.94
2018-08-11T02:47:46.573Z,11.94
2018-08-11T02:48:20.158Z,11.94
2018-08-11T02:48:53.704Z,11.88
2018-08-11T02:49:27.269Z,11.88
2018-08-11T02:50:00.816Z,11.88
2018-08-11T02:50:34.402Z,11.88
2018-08-11T02:51:07.969Z,11.88
2018-08-11T02:51:41.505Z,11.88
2018-08-11T02:52:15.097Z,11.88
2018-08-11T02:52:48.629Z,11.88
2018-08-11T02:53:22.201Z,11.88
2018-08-11T02:53:55.761Z,11.88
2018-08-11T02:54:29.310Z,11.88
2018-08-11T02:55:02.965Z,11.94
2018-08-11T02:55:36.521Z,11.94
2018-08-11T02:56:10.097Z,11.94
2018-08-11T02:56:43.665Z,11.94
2018-08-11T02:57:17.205Z,11.94
2018-08-11T02:57:50.751Z,11.94
2018-08-11T02:58:24.343Z,12.00
2018-08-11T02:58:57.929Z,12.00
2018-08-11T02:59:31.459Z,12.00
2018-08-11T03:00:08.360Z,12.00
2018-08-11T03:00:41.930Z,12.00
2018-08-11T03:01:15.501Z,12.06
2018-08-11T03:01:49.065Z,12.06
2018-08-11T03:02:22.697Z,12.06
2018-08-11T03:02:56.265Z,12.06
2018-08-11T03:03:29.815Z,12.06
2018-08-11T03:04:03.406Z,12.06
2018-08-11T03:04:36.921Z,12.06
2018-08-11T03:05:10.473Z,12.13
2018-08-11T03:05:44.022Z,12.13
2018-08-11T03:06:17.605Z,12.19
2018-08-11T03:06:51.501Z,12.19
2018-08-11T03:07:25.061Z,12.19
2018-08-11T03:07:58.596Z,12.13
2018-08-11T03:08:32.138Z,12.13
2018-08-11T03:09:08.091Z,12.19
2018-08-11T03:09:41.615Z,12.19
2018-08-11T03:10:15.183Z,12.19
2018-08-11T03:10:48.741Z,12.19
2018-08-11T03:11:22.339Z,12.25
2018-08-11T03:11:55.897Z,12.25
2018-08-11T03:12:29.479Z,12.25
2018-08-11T03:13:03.046Z,12.31
2018-08-11T03:13:36.574Z,12.31
2018-08-11T03:14:10.248Z,12.31
2018-08-11T03:14:43.693Z,12.37
2018-08-11T03:15:17.280Z,12.50
2018-08-11T03:15:50.877Z,12.63
2018-08-11T03:16:24.458Z,12.75
2018-08-11T03:16:57.993Z,12.94
2018-08-11T03:17:31.537Z,13.00
2018-08-11T03:18:05.271Z,13.06
2018-08-11T03:18:38.813Z,13.06
2018-08-11T03:19:12.361Z,13.06
2018-08-11T03:19:45.947Z,13.06
2018-08-11T03:20:19.495Z,13.00
2018-08-11T03:20:53.111Z,12.94
2018-08-11T03:21:26.637Z,12.94
2018-08-11T03:22:00.230Z,12.88
2018-08-11T03:22:33.785Z,12.81
2018-08-11T03:23:07.319Z,12.81
2018-08-11T03:23:40.865Z,12.75
2018-08-11T03:24:14.401Z,12.75
2018-08-11T03:24:47.997Z,12.69
2018-08-11T03:25:21.555Z,12.69
2018-08-11T03:25:55.132Z,12.69
2018-08-11T03:26:28.655Z,12.63
2018-08-11T03:27:02.242Z,12.63
2018-08-11T03:27:35.775Z,12.56
2018-08-11T03:28:09.293Z,12.56
2018-08-11T03:28:42.827Z,12.50
2018-08-11T03:29:16.335Z,12.50
2018-08-11T03:29:49.883Z,12.44
2018-08-11T03:30:23.425Z,12.37
2018-08-11T03:30:56.952Z,12.37
2018-08-11T03:31:30.503Z,12.37
2018-08-11T03:32:04.095Z,12.37
2018-08-11T03:32:37.647Z,12.37
2018-08-11T03:33:11.161Z,12.44
2018-08-11T03:33:44.725Z,12.44
2018-08-11T03:34:18.255Z,12.44
2018-08-11T03:34:51.788Z,12.37
2018-08-11T03:35:25.324Z,12.37
2018-08-11T03:35:58.841Z,12.37
2018-08-11T03:36:32.392Z,12.31
2018-08-11T03:37:06.033Z,12.31
2018-08-11T03:37:39.634Z,12.25
2018-08-11T03:38:13.189Z,12.25
2018-08-11T03:38:46.741Z,12.25
2018-08-11T03:39:20.297Z,12.25
2018-08-11T03:39:53.860Z,12.25
2018-08-11T03:40:27.371Z,12.25
2018-08-11T03:41:00.925Z,12.25
2018-08-11T03:41:34.489Z,12.19
2018-08-11T03:42:08.060Z,12.19
2018-08-11T03:42:42.123Z,12.19
2018-08-11T03:43:15.635Z,12.19
2018-08-11T03:43:49.140Z,12.13
2018-08-11T03:44:22.711Z,12.13
2018-08-11T03:44:56.242Z,12.13
2018-08-11T03:45:29.772Z,12.13
2018-08-11T03:46:03.399Z,12.13
2018-08-11T03:46:36.878Z,12.13
2018-08-11T03:47:10.453Z,12.13
2018-08-11T03:47:43.945Z,12.13
2018-08-11T03:48:17.475Z,12.13
2018-08-11T03:48:51.011Z,12.13
2018-08-11T03:49:24.554Z,12.13
2018-08-11T03:49:58.135Z,12.13
2018-08-11T03:50:31.708Z,12.13
2018-08-11T03:51:05.238Z,12.13
2018-08-11T03:51:38.825Z,12.13
2018-08-11T03:52:12.425Z,12.19
2018-08-11T03:52:45.950Z,12.19
2018-08-11T03:53:19.510Z,12.19
2018-08-11T03:53:53.039Z,12.25
2018-08-11T03:54:26.604Z,12.31
2018-08-11T03:55:00.159Z,12.37
2018-08-11T03:55:33.689Z,12.44
2018-08-11T03:56:07.256Z,12.56
2018-08-11T03:56:40.823Z,12.63
2018-08-11T03:57:14.388Z,12.69
2018-08-11T03:57:47.913Z,12.81
2018-08-11T03:58:21.437Z,12.94
2018-08-11T03:58:54.940Z,13.00
2018-08-11T03:59:28.559Z,13.06
2018-08-11T04:00:02.285Z,13.06
2018-08-11T04:00:35.792Z,13.06
2018-08-11T04:01:09.370Z,13.06
2018-08-11T04:01:42.946Z,13.06
2018-08-11T04:02:16.459Z,13.06
2018-08-11T04:02:50.015Z,13.00
2018-08-11T04:03:23.568Z,13.00
2018-08-11T04:03:57.105Z,12.94
2018-08-11T04:04:30.644Z,12.88
2018-08-11T04:05:04.516Z,12.88
2018-08-11T04:05:38.061Z,12.81
2018-08-11T04:06:11.594Z,12.75
2018-08-11T04:06:45.217Z,12.75
2018-08-11T04:07:18.721Z,12.69
2018-08-11T04:07:52.243Z,12.63
2018-08-11T04:08:25.818Z,12.63
2018-08-11T04:08:59.335Z,12.63
2018-08-11T04:09:32.899Z,12.56
2018-08-11T04:10:06.501Z,12.56
2018-08-11T04:10:40.039Z,12.56
2018-08-11T04:11:13.607Z,12.50
2018-08-11T04:11:47.097Z,12.50
2018-08-11T04:12:20.641Z,12.50
2018-08-11T04:12:54.173Z,12.44
2018-08-11T04:13:27.702Z,12.44
2018-08-11T04:14:01.191Z,12.44
2018-08-11T04:14:34.734Z,12.44
2018-08-11T04:15:08.292Z,12.44
2018-08-11T04:15:41.885Z,12.44
2018-08-11T04:16:15.504Z,12.50
2018-08-11T04:16:49.021Z,12.50
2018-08-11T04:17:31.120Z,12.56
2018-08-11T04:18:04.756Z,12.56
2018-08-11T04:18:38.318Z,12.56
2018-08-11T04:19:11.896Z,12.56
2018-08-11T04:19:45.459Z,12.56
2018-08-11T04:20:19.088Z,12.56
2018-08-11T04:20:52.623Z,12.56
2018-08-11T04:21:26.141Z,12.56
2018-08-11T04:21:59.694Z,12.56
2018-08-11T04:22:33.296Z,12.50
2018-08-11T04:23:06.900Z,12.50
2018-08-11T04:23:40.463Z,12.50
2018-08-11T04:24:14.011Z,12.50
2018-08-11T04:24:47.594Z,12.44
2018-08-11T04:25:21.113Z,12.44
2018-08-11T04:25:54.676Z,12.44
2018-08-11T04:26:28.273Z,12.37
2018-08-11T04:27:01.801Z,12.37
2018-08-11T04:27:35.882Z,12.37
2018-08-11T04:28:09.372Z,12.37
2018-08-11T04:28:42.904Z,12.31
2018-08-11T04:29:16.453Z,12.31
2018-08-11T04:29:50.002Z,12.25
2018-08-11T04:30:23.493Z,12.25
2018-08-11T04:30:57.040Z,12.25
2018-08-11T04:31:30.602Z,12.25
2018-08-11T04:32:04.203Z,12.19
2018-08-11T04:32:37.992Z,12.19
2018-08-11T04:33:11.558Z,12.19
2018-08-11T04:33:45.082Z,12.19
2018-08-11T04:34:18.590Z,12.19
2018-08-11T04:34:52.101Z,12.13
2018-08-11T04:35:25.633Z,12.19
2018-08-11T04:35:59.220Z,12.19
2018-08-11T04:36:32.786Z,12.19
2018-08-11T04:37:06.355Z,12.19
2018-08-11T04:37:39.886Z,12.19
2018-08-11T04:38:13.412Z,12.25
2018-08-11T04:38:46.960Z,12.31
2018-08-11T04:39:20.476Z,12.37
2018-08-11T04:39:54.067Z,12.44
2018-08-11T04:40:27.595Z,12.44
2018-08-11T04:41:01.144Z,12.44
2018-08-11T04:41:34.731Z,12.44
2018-08-11T04:42:08.312Z,12.44
2018-08-11T04:42:41.791Z,12.44
2018-08-11T04:43:15.348Z,12.44
2018-08-11T04:43:48.883Z,12.44
2018-08-11T04:44:22.463Z,12.37
2018-08-11T04:44:55.992Z,12.37
2018-08-11T04:45:29.532Z,12.37
2018-08-11T04:46:03.079Z,12.37
2018-08-11T04:46:36.648Z,12.31
2018-08-11T04:47:10.285Z,12.31
2018-08-11T04:47:43.807Z,12.31
2018-08-11T04:48:17.364Z,12.31
2018-08-11T04:48:50.913Z,12.31
2018-08-11T04:49:24.439Z,12.31
2018-08-11T04:49:57.974Z,12.31
2018-08-11T04:50:31.522Z,12.31
2018-08-11T04:51:05.113Z,12.25
2018-08-11T04:51:38.682Z,12.25
2018-08-11T04:52:12.203Z,12.19
2018-08-11T04:52:45.749Z,12.19
2018-08-11T04:53:19.261Z,12.19
2018-08-11T04:53:52.816Z,12.19
2018-08-11T04:54:26.359Z,12.13
2018-08-11T04:54:59.893Z,12.13
2018-08-11T04:55:33.438Z,12.13
2018-08-11T04:56:06.990Z,12.13
2018-08-11T04:56:40.588Z,12.19
2018-08-11T04:57:14.158Z,12.13
2018-08-11T04:57:47.692Z,12.19
2018-08-11T04:58:21.262Z,12.19
2018-08-11T04:58:54.830Z,12.19
2018-08-11T04:59:28.453Z,12.19
2018-08-11T05:00:02.025Z,12.19
2018-08-11T05:00:35.634Z,12.19
2018-08-11T05:01:09.220Z,12.19
2018-08-11T05:01:42.752Z,12.25
2018-08-11T05:02:16.316Z,12.25
2018-08-11T05:02:49.888Z,12.25
2018-08-11T05:03:23.433Z,12.31
2018-08-11T05:03:57.014Z,12.37
2018-08-11T05:04:30.522Z,12.44
2018-08-11T05:05:04.932Z,12.44
2018-08-11T05:05:38.487Z,12.50
2018-08-11T05:06:12.011Z,12.56
2018-08-11T05:06:45.591Z,12.56
2018-08-11T05:07:19.101Z,12.56
2018-08-11T05:07:52.611Z,12.56
2018-08-11T05:08:26.171Z,12.56
2018-08-11T05:08:59.727Z,12.56
2018-08-11T05:09:33.309Z,12.63
2018-08-11T05:10:07.699Z,12.63
2018-08-11T05:10:41.274Z,12.69
2018-08-11T05:11:14.854Z,12.75
2018-08-11T05:11:48.464Z,12.75
2018-08-11T05:12:22.015Z,12.75
2018-08-11T05:12:55.536Z,12.75
2018-08-11T05:13:29.080Z,12.75
2018-08-11T05:14:02.766Z,12.75
2018-08-11T05:14:36.296Z,12.69
2018-08-11T05:15:09.950Z,12.69
2018-08-11T05:15:43.526Z,12.69
2018-08-11T05:16:17.058Z,12.69
2018-08-11T05:16:50.604Z,12.69
2018-08-11T05:17:24.174Z,12.69
2018-08-11T05:17:57.791Z,12.63
2018-08-11T05:18:31.414Z,12.63
2018-08-11T05:19:05.284Z,12.63
2018-08-11T05:19:38.826Z,12.56
2018-08-11T05:20:12.445Z,12.63
2018-08-11T05:20:45.984Z,12.63
2018-08-11T05:21:19.504Z,12.63
2018-08-11T05:21:53.072Z,12.69
2018-08-11T05:22:26.617Z,12.75
2018-08-11T05:23:00.159Z,12.81
2018-08-11T05:23:33.732Z,12.81
2018-08-11T05:24:07.532Z,12.88
2018-08-11T05:24:41.075Z,12.94
2018-08-11T05:25:14.586Z,13.00
2018-08-11T05:25:48.175Z,13.06
2018-08-11T05:26:21.746Z,13.13
2018-08-11T05:26:55.277Z,13.19
2018-08-11T05:27:28.860Z,13.25
2018-08-11T05:28:02.410Z,13.31
2018-08-11T05:28:35.963Z,13.31
2018-08-11T05:29:09.530Z,13.38
2018-08-11T05:29:43.105Z,13.44
2018-08-11T05:30:16.698Z,13.44
2018-08-11T05:30:50.250Z,13.50
2018-08-11T05:31:23.790Z,13.56
2018-08-11T05:31:57.329Z,13.56
2018-08-11T05:32:30.886Z,13.56
2018-08-11T05:33:04.786Z,13.56
2018-08-11T05:33:38.372Z,13.56
2018-08-11T05:34:11.899Z,13.62
2018-08-11T05:34:45.434Z,13.62
2018-08-11T05:35:18.975Z,13.62
2018-08-11T05:35:52.492Z,13.69
2018-08-11T05:36:26.060Z,13.69
2018-08-11T05:36:59.645Z,13.69
2018-08-11T05:37:33.526Z,13.69
2018-08-11T05:38:07.066Z,13.69
2018-08-11T05:38:40.602Z,13.69
2018-08-11T05:39:14.368Z,13.62
2018-08-11T05:39:47.923Z,13.62
2018-08-11T05:40:21.469Z,13.56
2018-08-11T05:40:55.011Z,13.56
2018-08-11T05:41:28.578Z,13.50
2018-08-11T05:42:02.201Z,13.50
2018-08-11T05:42:35.754Z,13.50
2018-08-11T05:43:09.263Z,13.50
2018-08-11T05:43:42.836Z,13.50
2018-08-11T05:44:16.368Z,13.50
2018-08-11T05:44:49.938Z,13.50
2018-08-11T05:45:23.492Z,13.50
2018-08-11T05:45:57.044Z,13.50
2018-08-11T05:46:30.585Z,13.56
2018-08-11T05:47:04.287Z,13.56
2018-08-11T05:47:37.889Z,13.56
2018-08-11T05:48:11.518Z,13.56
2018-08-11T05:48:45.081Z,13.62
2018-08-11T05:49:18.603Z,13.62
2018-08-11T05:49:52.436Z,13.69
2018-08-11T05:50:25.980Z,13.75
2018-08-11T05:50:59.538Z,13.81
2018-08-11T05:51:33.068Z,13.88
2018-08-11T05:52:06.669Z,13.94
2018-08-11T05:52:40.238Z,14.00
2018-08-11T05:53:13.805Z,14.13
2018-08-11T05:53:47.353Z,14.19
2018-08-11T05:54:20.898Z,14.25
2018-08-11T05:54:54.432Z,14.31
2018-08-11T05:55:27.971Z,14.44
2018-08-11T05:56:01.528Z,14.50
2018-08-11T05:56:35.066Z,14.56
2018-08-11T05:57:08.598Z,14.63
2018-08-11T05:57:42.344Z,14.69
2018-08-11T05:58:15.891Z,14.69
2018-08-11T05:58:49.440Z,14.75
2018-08-11T05:59:23.011Z,14.87
2018-08-11T05:59:56.557Z,14.94
2018-08-11T06:00:30.129Z,15.00
2018-08-11T06:01:03.717Z,15.06
2018-08-11T06:01:37.238Z,15.13
2018-08-11T06:02:10.822Z,15.13
2018-08-11T06:02:44.428Z,15.19
2018-08-11T06:03:18.326Z,15.19
2018-08-11T06:03:51.906Z,15.19
2018-08-11T06:04:25.622Z,15.19
2018-08-11T06:04:59.168Z,15.19
2018-08-11T06:05:32.698Z,15.13
2018-08-11T06:06:06.269Z,15.13
2018-08-11T06:06:39.815Z,15.06
2018-08-11T06:07:13.416Z,15.06
2018-08-11T06:07:46.956Z,15.06
2018-08-11T06:08:20.599Z,15.00
2018-08-11T06:08:54.133Z,15.00
2018-08-11T06:09:27.670Z,15.00
2018-08-11T06:10:01.247Z,15.00
2018-08-11T06:10:34.876Z,14.94
2018-08-11T06:11:08.410Z,15.00
2018-08-11T06:11:42.018Z,15.00
2018-08-11T06:12:15.585Z,15.06
2018-08-11T06:12:49.112Z,15.13
2018-08-11T06:13:22.638Z,15.19
2018-08-11T06:13:56.183Z,15.25
2018-08-11T06:14:29.708Z,15.25
2018-08-11T06:15:03.821Z,15.25
2018-08-11T06:15:37.400Z,15.19
2018-08-11T06:16:10.963Z,15.13
2018-08-11T06:16:44.479Z,15.13
2018-08-11T06:17:18.065Z,15.06
2018-08-11T06:17:51.648Z,15.06
2018-08-11T06:18:25.160Z,15.06
2018-08-11T06:18:58.717Z,15.00
2018-08-11T06:19:32.236Z,15.00
2018-08-11T06:20:07.824Z,15.00
2018-08-11T06:20:41.384Z,15.06
2018-08-11T06:21:15.052Z,15.13
2018-08-11T06:21:48.543Z,15.13
2018-08-11T06:22:22.152Z,15.19
2018-08-11T06:22:55.705Z,15.19
2018-08-11T06:23:29.238Z,15.25
2018-08-11T06:24:02.840Z,15.25
2018-08-11T06:24:36.429Z,15.25
2018-08-11T06:25:10.616Z,15.31
2018-08-11T06:25:44.174Z,15.31
2018-08-11T06:26:17.696Z,15.31
2018-08-11T06:26:51.474Z,15.31
2018-08-11T06:27:25.043Z,15.31
2018-08-11T06:27:58.600Z,15.31
2018-08-11T06:28:32.136Z,15.31
2018-08-11T06:29:05.752Z,15.31
2018-08-11T06:29:39.347Z,15.31
2018-08-11T06:30:12.980Z,15.25
2018-08-11T06:30:46.492Z,15.25
2018-08-11T06:31:20.075Z,15.19
2018-08-11T06:31:53.719Z,15.19
2018-08-11T06:32:27.230Z,15.13
2018-08-11T06:33:00.812Z,15.13
2018-08-11T06:33:34.395Z,15.13
2018-08-11T06:34:07.984Z,15.13
2018-08-11T06:34:41.537Z,15.13
2018-08-11T06:35:15.079Z,15.06
2018-08-11T06:35:48.670Z,15.06
2018-08-11T06:36:22.231Z,15.06
2018-08-11T06:36:55.798Z,15.06
2018-08-11T06:37:29.395Z,15.06
2018-08-11T06:38:03.020Z,15.06
2018-08-11T06:38:36.587Z,15.06
2018-08-11T06:39:12.542Z,15.00
2018-08-11T06:39:46.093Z,15.00
2018-08-11T06:40:19.696Z,14.94
2018-08-11T06:40:53.276Z,14.94
2018-08-11T06:41:26.800Z,14.87
2018-08-11T06:42:00.337Z,14.87
2018-08-11T06:42:33.952Z,14.81
2018-08-11T06:43:07.517Z,14.81
2018-08-11T06:43:41.043Z,14.75
2018-08-11T06:44:14.586Z,14.75
2018-08-11T06:44:48.232Z,14.75
2018-08-11T06:45:22.003Z,14.69
2018-08-11T06:45:55.648Z,14.63
2018-08-11T06:46:29.358Z,14.63
2018-08-11T06:47:03.067Z,14.56
2018-08-11T06:47:36.684Z,14.56
2018-08-11T06:48:10.301Z,14.50
2018-08-11T06:48:43.889Z,14.44
2018-08-11T06:49:17.415Z,14.38
2018-08-11T06:49:50.977Z,14.38
2018-08-11T06:50:24.502Z,14.38
2018-08-11T06:50:58.033Z,14.38
2018-08-11T06:51:31.622Z,14.38
2018-08-11T06:52:05.288Z,14.44
2018-08-11T06:52:38.796Z,14.50
2018-08-11T06:53:12.338Z,14.50
2018-08-11T06:53:45.892Z,14.56
2018-08-11T06:54:19.460Z,14.56
2018-08-11T06:54:53.005Z,14.63
2018-08-11T06:55:26.568Z,14.69
2018-08-11T06:56:00.151Z,14.69
2018-08-11T06:56:33.668Z,14.75
2018-08-11T06:57:07.212Z,14.75
2018-08-11T06:57:40.788Z,14.81
2018-08-11T06:58:14.358Z,14.87
2018-08-11T06:58:47.872Z,14.87
2018-08-11T06:59:21.384Z,14.94
2018-08-11T06:59:55.070Z,15.00
2018-08-11T07:00:28.622Z,15.13
2018-08-11T07:01:02.156Z,15.25
2018-08-11T07:01:35.820Z,15.44
2018-08-11T07:02:09.379Z,15.69
2018-08-11T07:02:42.939Z,16.00
2018-08-11T07:03:16.742Z,16.50
2018-08-11T07:03:50.291Z,16.94
2018-08-11T07:04:23.852Z,17.44
2018-08-11T07:04:57.408Z,18.00
2018-08-11T07:05:30.956Z,18.56
2018-08-11T07:06:04.530Z,19.06
2018-08-11T07:06:38.701Z,19.56
2018-08-11T07:07:12.230Z,20.06
2018-08-11T07:07:45.829Z,20.37
2018-08-11T07:08:19.334Z,20.62
2018-08-11T07:08:52.877Z,20.81
2018-08-11T07:09:26.418Z,20.94
2018-08-11T07:09:59.960Z,21.06
2018-08-11T07:10:33.607Z,21.19
2018-08-11T07:11:07.223Z,21.37
2018-08-11T07:11:40.720Z,21.56
2018-08-11T07:12:14.249Z,21.75
2018-08-11T07:12:47.776Z,22.00
2018-08-11T07:13:21.340Z,22.25
2018-08-11T07:13:54.917Z,22.44